createdAt,value
2022-10-06T00:03:51.477Z,1015.9
2022-10-06T00:08:52.358Z,1016.3
2022-10-06T00:13:51.837Z,1016.3
2022-10-06T00:18:51.521Z,1016.4
2022-10-06T00:23:51.799Z,1016.4
2022-10-06T00:28:52.219Z,1016.5
2022-10-06T00:33:51.534Z,1016.5
2022-10-06T00:38:51.924Z,1016.6
2022-10-06T00:43:51.618Z,1016.6
2022-10-06T00:48:52.074Z,1016.7
2022-10-06T00:53:51.871Z,1016.7
2022-10-06T00:58:52.237Z,1016.8
2022-10-06T01:03:51.987Z,1016.8
2022-10-06T01:08:52.429Z,1016.9
2022-10-06T01:13:51.881Z,1016.9
2022-10-06T01:18:52.306Z,1017
2022-10-06T01:23:51.856Z,1017
2022-10-06T01:28:52.247Z,1017.2
2022-10-06T01:33:51.634Z,1017.2
2022-10-06T01:38:52.093Z,1017.5
2022-10-06T01:43:51.424Z,1017.5
2022-10-06T01:48:51.765Z,1017.5
2022-10-06T01:53:51.496Z,1017.5
2022-10-06T01:58:51.744Z,1017.7
2022-10-06T02:03:52.009Z,1017.7
2022-10-06T02:08:52.512Z,1017.9
2022-10-06T02:13:51.934Z,1017.9
2022-10-06T02:18:52.101Z,1018.1
2022-10-06T02:23:51.706Z,1018.1
2022-10-06T02:28:52.256Z,1018.3
2022-10-06T02:33:51.569Z,1018.3
2022-10-06T02:38:51.902Z,1018.6
2022-10-06T02:43:51.606Z,1018.6
2022-10-06T02:48:51.985Z,1018.7
2022-10-06T02:53:51.763Z,1018.7
2022-10-06T02:58:52.478Z,1018.9
2022-10-06T03:03:51.902Z,1018.9
2022-10-06T03:08:52.092Z,1019
2022-10-06T03:13:52.356Z,1019
2022-10-06T03:18:51.844Z,1019.2
2022-10-06T03:23:52.520Z,1019.2
2022-10-06T03:28:52.020Z,1019.5
2022-10-06T03:33:51.613Z,1019.5
2022-10-06T03:38:52.388Z,1019.6
2022-10-06T03:43:52.124Z,1019.6
2022-10-06T03:48:51.916Z,1019.7
2022-10-06T03:53:52.436Z,1019.7
2022-10-06T03:58:52.191Z,1019.9
2022-10-06T04:03:52.072Z,1019.9
2022-10-06T04:08:52.247Z,1020.1
2022-10-06T04:13:51.921Z,1020.1
2022-10-06T04:18:52.266Z,1020.3
2022-10-06T04:23:52.097Z,1020.3
2022-10-06T04:28:52.549Z,1020.5
2022-10-06T04:33:52.183Z,1020.5
2022-10-06T04:38:52.048Z,1020.6
2022-10-06T04:43:51.811Z,1020.6
2022-10-06T04:48:52.674Z,1020.8
2022-10-06T04:53:52.662Z,1020.8
2022-10-06T04:58:52.370Z,1021
2022-10-06T05:03:51.973Z,1021
2022-10-06T05:08:52.493Z,1021.2
2022-10-06T05:13:51.780Z,1021.2
2022-10-06T05:18:52.076Z,1021.4
2022-10-06T05:23:51.615Z,1021.4
2022-10-06T05:28:52.238Z,1021.7
2022-10-06T05:33:51.628Z,1021.7
2022-10-06T05:38:52.131Z,1021.9
2022-10-06T05:43:52.515Z,1021.9
2022-10-06T05:48:51.752Z,1022
2022-10-06T05:53:52.298Z,1022
2022-10-06T05:58:51.633Z,1022.2
2022-10-06T06:03:52.111Z,1022.2
2022-10-06T06:08:52.417Z,1022.5
2022-10-06T06:13:51.927Z,1022.5
2022-10-06T06:18:52.200Z,1022.7
2022-10-06T06:23:52.717Z,1022.7
2022-10-06T06:28:52.426Z,1022.9
2022-10-06T06:33:52.107Z,1022.9
2022-10-06T06:38:52.661Z,1023.1
2022-10-06T06:43:52.073Z,1023.1
2022-10-06T06:48:52.697Z,1023.3
2022-10-06T06:53:52.151Z,1023.3
2022-10-06T06:58:52.518Z,1023.5
2022-10-06T07:03:59.039Z,1023.5
2022-10-06T07:08:51.973Z,1023.7
2022-10-06T07:13:52.627Z,1023.7
2022-10-06T07:18:51.911Z,1023.9
2022-10-06T07:23:52.409Z,1023.9
2022-10-06T07:28:52.775Z,1024.1
2022-10-06T07:33:52.099Z,1024.1
2022-10-06T07:38:52.409Z,1024.3
2022-10-06T07:43:51.749Z,1024.3
2022-10-06T07:48:52.338Z,1024.5
2022-10-06T07:53:51.885Z,1024.5
2022-10-06T07:58:52.280Z,1024.6
2022-10-06T08:03:52.165Z,1024.6
2022-10-06T08:08:53.723Z,1024.8
2022-10-06T08:13:52.451Z,1024.8
2022-10-06T08:18:51.998Z,1025
2022-10-06T08:23:52.615Z,1025
2022-10-06T08:28:52.202Z,1025.1
2022-10-06T08:33:52.563Z,1025.1
2022-10-06T08:38:52.338Z,1025.3
2022-10-06T08:43:52.047Z,1025.3
2022-10-06T08:48:52.664Z,1025.4
2022-10-06T08:53:52.080Z,1025.4
2022-10-06T08:58:52.186Z,1025.6
2022-10-06T09:03:52.580Z,1025.6
2022-10-06T09:08:52.204Z,1025.7
2022-10-06T09:13:51.853Z,1025.7
2022-10-06T09:19:09.452Z,1025.9
2022-10-06T09:23:51.907Z,1025.9
2022-10-06T09:28:52.437Z,1026.1
2022-10-06T09:33:52.243Z,1026.1
2022-10-06T09:38:52.654Z,1026.2
2022-10-06T09:43:52.561Z,1026.2
2022-10-06T09:48:52.763Z,1026.3
2022-10-06T09:53:52.357Z,1026.3
2022-10-06T09:58:52.393Z,1026.4
2022-10-06T10:04:21.528Z,1026.4
2022-10-06T10:08:52.564Z,1026.4
2022-10-06T10:13:51.899Z,1026.4
2022-10-06T10:18:52.283Z,1026.6
2022-10-06T10:23:51.869Z,1026.6
2022-10-06T10:28:52.435Z,1026.8
2022-10-06T10:34:23.502Z,1026.8
2022-10-06T10:38:52.063Z,1026.7
2022-10-06T10:43:52.011Z,1026.7
2022-10-06T10:48:52.392Z,1026.9
2022-10-06T10:53:51.923Z,1026.9
2022-10-06T10:58:52.672Z,1027
2022-10-06T11:03:52.072Z,1027
2022-10-06T11:08:52.858Z,1027.1
2022-10-06T11:13:52.522Z,1027.1
2022-10-06T11:18:53.011Z,1027.1
2022-10-06T11:23:52.468Z,1027.1
2022-10-06T11:28:52.104Z,1027.2
2022-10-06T11:33:52.804Z,1027.2
2022-10-06T11:38:52.279Z,1027.1
2022-10-06T11:43:52.606Z,1027.1
2022-10-06T11:48:52.093Z,1027.2
2022-10-06T11:53:52.718Z,1027.2
2022-10-06T11:58:52.360Z,1027.3
2022-10-06T12:03:52.188Z,1027.3
2022-10-06T12:08:52.842Z,1027.4
2022-10-06T12:17:08.379Z,1027.4
2022-10-06T12:18:52.777Z,1027.5
2022-10-06T12:23:52.674Z,1027.5
2022-10-06T12:28:52.086Z,1027.5
2022-10-06T12:33:52.760Z,1027.5
2022-10-06T12:38:52.319Z,1027.5
2022-10-06T12:43:52.730Z,1027.5
2022-10-06T12:48:52.166Z,1027.5
2022-10-06T12:53:52.563Z,1027.5
2022-10-06T12:58:52.075Z,1027.5
2022-10-06T13:03:52.512Z,1027.5
2022-10-06T13:08:52.012Z,1027.6
2022-10-06T13:13:52.458Z,1027.6
2022-10-06T13:18:51.965Z,1027.6
2022-10-06T13:23:52.285Z,1027.6
2022-10-06T13:28:52.656Z,1027.7
2022-10-06T13:33:51.985Z,1027.7
2022-10-06T13:38:52.468Z,1027.6
2022-10-06T13:43:51.964Z,1027.6
2022-10-06T13:48:52.462Z,1027.6
2022-10-06T13:53:52.827Z,1027.6
2022-10-06T13:58:52.025Z,1027.6
2022-10-06T14:03:52.723Z,1027.6
2022-10-06T14:08:52.378Z,1027.7
2022-10-06T14:13:52.103Z,1027.7
2022-10-06T14:18:52.729Z,1027.8
2022-10-06T14:23:52.197Z,1027.8
2022-10-06T14:28:52.646Z,1027.8
2022-10-06T14:33:52.893Z,1027.8
2022-10-06T14:38:52.394Z,1027.8
2022-10-06T14:43:52.865Z,1027.8
2022-10-06T14:48:52.946Z,1027.9
2022-10-06T14:53:52.769Z,1027.9
2022-10-06T14:58:52.814Z,1027.9
2022-10-06T15:03:52.633Z,1027.9
2022-10-06T15:08:52.419Z,1028
2022-10-06T15:13:52.232Z,1028
2022-10-06T15:18:52.742Z,1027.8
2022-10-06T15:23:52.415Z,1027.8
2022-10-06T15:28:52.535Z,1027.9
2022-10-06T15:33:53.388Z,1027.9
2022-10-06T15:38:52.466Z,1027.9
2022-10-06T15:43:52.024Z,1027.9
2022-10-06T15:48:52.863Z,1027.9
2022-10-06T15:53:52.065Z,1027.9
2022-10-06T15:58:52.485Z,1027.9
2022-10-06T16:03:52.554Z,1027.9
2022-10-06T16:08:52.236Z,1028.1
2022-10-06T16:13:52.650Z,1028.1
2022-10-06T16:18:52.370Z,1028.1
2022-10-06T16:23:52.920Z,1028.1
2022-10-06T16:28:52.158Z,1028.2
2022-10-06T16:33:52.448Z,1028.2
2022-10-06T16:38:53.115Z,1028.2
2022-10-06T16:43:52.833Z,1028.2
2022-10-06T16:48:52.672Z,1028.2
2022-10-06T16:53:52.318Z,1028.2
2022-10-06T16:58:52.496Z,1028.3
2022-10-06T17:03:52.904Z,1028.3
2022-10-06T17:08:52.550Z,1028.5
2022-10-06T17:13:52.628Z,1028.5
2022-10-06T17:18:52.194Z,1028.6
2022-10-06T17:23:52.667Z,1028.6
2022-10-06T17:28:52.228Z,1028.6
2022-10-06T17:33:52.794Z,1028.6
2022-10-06T17:38:52.225Z,1028.6
2022-10-06T17:43:52.632Z,1028.6
2022-10-06T17:48:52.673Z,1028.6
2022-10-06T17:53:52.214Z,1028.6
2022-10-06T17:58:52.627Z,1028.6
2022-10-06T18:03:52.105Z,1028.6
2022-10-06T18:08:52.713Z,1028.7
2022-10-06T18:13:52.959Z,1028.7
2022-10-06T18:18:52.345Z,1028.7
2022-10-06T18:23:53.036Z,1028.7
2022-10-06T18:28:52.460Z,1028.6
2022-10-06T18:38:52.146Z,1028.6
2022-10-06T18:43:52.689Z,1028.6
2022-10-06T18:48:53.167Z,1028.6
2022-10-06T18:53:52.557Z,1028.6
2022-10-06T18:58:52.257Z,1028.6
2022-10-06T19:03:52.590Z,1028.6
2022-10-06T19:08:53.023Z,1028.7
2022-10-06T19:13:52.340Z,1028.7
2022-10-06T19:18:52.962Z,1028.8
2022-10-06T19:23:52.253Z,1028.8
2022-10-06T19:28:52.719Z,1028.9
2022-10-06T19:33:52.076Z,1028.9
2022-10-06T19:38:52.432Z,1029
2022-10-06T19:43:52.154Z,1029
2022-10-06T19:48:52.444Z,1029
2022-10-06T19:53:52.837Z,1029
2022-10-06T19:58:52.563Z,1029
2022-10-06T20:03:52.396Z,1029
2022-10-06T20:08:52.819Z,1029
2022-10-06T20:13:52.383Z,1029
2022-10-06T20:18:52.735Z,1029
2022-10-06T20:23:52.324Z,1029
2022-10-06T20:28:52.997Z,1029
2022-10-06T20:33:52.285Z,1029
2022-10-06T20:38:52.977Z,1029
2022-10-06T20:43:52.551Z,1029
2022-10-06T20:48:53.220Z,1029.1
2022-10-06T20:53:52.548Z,1029.1
2022-10-06T20:58:52.331Z,1029
2022-10-06T21:03:53.010Z,1029
2022-10-06T21:08:52.987Z,1029
2022-10-06T21:13:52.251Z,1029
2022-10-06T21:18:52.823Z,1029
2022-10-06T21:23:52.696Z,1029
2022-10-06T21:28:53.137Z,1029
2022-10-06T21:33:52.690Z,1029
2022-10-06T21:38:52.291Z,1028.9
2022-10-06T21:43:52.834Z,1028.9
2022-10-06T21:48:52.287Z,1028.9
2022-10-06T21:53:52.882Z,1028.9
2022-10-06T21:58:52.287Z,1028.9
2022-10-06T22:03:52.210Z,1028.9
2022-10-06T22:08:52.770Z,1028.8
2022-10-06T22:13:52.471Z,1028.8
2022-10-06T22:18:52.752Z,1028.7
2022-10-06T22:23:52.755Z,1028.7
2022-10-06T22:28:52.360Z,1028.6
2022-10-06T22:33:53.009Z,1028.6
2022-10-06T22:38:52.257Z,1028.6
2022-10-06T22:43:52.697Z,1028.6
2022-10-06T22:48:53.351Z,1028.5
2022-10-06T22:53:58.743Z,1028.5
2022-10-06T22:58:52.391Z,1028.4
2022-10-06T23:03:52.968Z,1028.4
2022-10-06T23:08:52.544Z,1028.3
2022-10-06T23:13:55.099Z,1028.3
2022-10-06T23:18:52.287Z,1028.2
2022-10-06T23:23:52.938Z,1028.2
2022-10-06T23:28:52.981Z,1028.1
2022-10-06T23:33:52.707Z,1028.1
2022-10-06T23:38:53.055Z,1028
2022-10-06T23:43:52.835Z,1028
2022-10-06T23:48:52.967Z,1028
2022-10-06T23:53:52.514Z,1028
2022-10-06T23:58:52.974Z,1027.9
